Kezdőlap
METAR-TAF:

METAR-TAF

Repülőterek :

Denison Municipal Airport

Denison, Iowa, Amerikai Egyesült Államok

földrajzi szélesség: 41-59N, földrajzi hosszúság: 095-23W, magasság: 388 m

Jelenlegi meteorológiai megfigyelések

A jelentés 16 perccel ezelõtt készült, 11:35 UTC
Keleti szél 9 kt széllökések: 15 kt
Hőmérséklet 21°C
Páratartalom 60%
Légköri nyomás 1018 hPa
Látótávolság: 16.1 km
Szórványos felhőzet 3300 lábon
Szakadozott felhőzet 5000 lábon

METAR: KDNS 061135Z AUTO 09009G15KT 10SM SCT033 BKN050 21/13 A3005 RMK AO2

Idő: 06:51 (11:51 UTC)


TAF: hiányzik

Meteorológiai megfigyelések és előrejelzések több, mint 4000 repülőtéren (METAR és TAF jelentéseket).

A térképen piros és sárga pontok jelzik az elérhető meteorológiai állomásokat.

Mozgassa az egeret a pont fölött, hogy megjelenjen az állomás neve.

Azután kattintson az időjárási megfigyelések és előrejelzések megtekintéséhez.

A térkép megváltoztatása: kattintson a fekete keresztel jelölt zöld gombra ráközelítéshez, a vonallal jelölt zöld gombra távolításhoz, vagy a zöld nyilakra a szomszédos térképek eléréséhez.


METAR-TAF: